Current Weather

Boeing Fld/King County Intl

Seattle, Washington (KBFI)

Report from: Thursday, July 18, 2024 6:53 AM PDT
Current time: Thursday, July 18, 2024 7:31 AM PDT

Nearby weather – Weather history – Daily summaries
Weather forecast

Temperature16.1°C (61.0°F)
Dew point11.7°C (53.1°F)
Winds 4 kts (2.1 m/s, 4.6 mph) South-Southwest (200°)
Visibility10 mi. (16.1 km)
Clouds Sky clear
Altimeter30.09 in.Hg (1019 mB)
Relative humidity75 %
Density altitude129 ft. (39 m)
Sea-level pressure101.9 kPa (1019 mB, 30.09 in.Hg)
Remarks Automated weather observing station with precipitation discriminator
Flight conditions Visual Meteorological Conditions
Raw dataKBFI 181353Z 20004KT 10SM CLR 16/12 A3009 RMK AO2 SLP190 T01610117
An error has occurred. This application may no longer respond until reloaded. Reload 🗙